createdAt,value
2018-05-18T00:01:28.384Z,82.30
2018-05-18T00:03:55.932Z,82.30
2018-05-18T00:06:23.437Z,82.40
2018-05-18T00:08:50.918Z,82.40
2018-05-18T00:11:18.400Z,82.50
2018-05-18T00:13:46.631Z,82.50
2018-05-18T00:16:14.133Z,82.50
2018-05-18T00:18:41.614Z,82.60
2018-05-18T00:21:09.140Z,82.70
2018-05-18T00:23:36.601Z,82.70
2018-05-18T00:26:04.081Z,82.90
2018-05-18T00:28:31.573Z,82.80
2018-05-18T00:30:59.065Z,82.90
2018-05-18T00:33:26.555Z,82.90
2018-05-18T00:35:54.040Z,82.90
2018-05-18T00:38:21.497Z,82.80
2018-05-18T00:40:48.964Z,83.00
2018-05-18T00:43:16.425Z,82.90
2018-05-18T00:45:43.905Z,82.90
2018-05-18T00:48:11.370Z,82.90
2018-05-18T00:50:38.948Z,82.90
2018-05-18T00:53:07.171Z,82.90
2018-05-18T00:55:40.252Z,82.90
2018-05-18T00:58:07.713Z,82.90
2018-05-18T01:00:35.184Z,82.80
2018-05-18T01:03:02.675Z,82.80
2018-05-18T01:05:30.905Z,82.80
2018-05-18T01:07:58.393Z,82.80
2018-05-18T01:10:26.657Z,83.00
2018-05-18T01:12:54.223Z,83.00
2018-05-18T01:15:21.656Z,83.10
2018-05-18T01:17:49.145Z,83.20
2018-05-18T01:20:16.608Z,83.20
2018-05-18T01:22:44.856Z,83.20
2018-05-18T01:25:12.336Z,83.10
2018-05-18T01:27:39.868Z,83.10
2018-05-18T01:30:07.340Z,83.20
2018-05-18T01:32:34.815Z,83.10
2018-05-18T01:35:03.065Z,83.10
2018-05-18T01:37:30.524Z,83.10
2018-05-18T01:39:58.001Z,82.90
2018-05-18T01:42:26.233Z,83.20
2018-05-18T01:44:53.936Z,83.20
2018-05-18T01:47:22.203Z,83.30
2018-05-18T01:49:49.704Z,83.30
2018-05-18T01:52:17.165Z,83.30
2018-05-18T01:54:44.625Z,83.40
2018-05-18T01:57:12.128Z,83.50
2018-05-18T01:59:39.640Z,83.60
2018-05-18T02:02:07.140Z,83.80
2018-05-18T02:04:34.600Z,83.70
2018-05-18T02:07:02.060Z,83.90
2018-05-18T02:09:29.534Z,83.90
2018-05-18T02:11:57.018Z,84.10
2018-05-18T02:14:24.476Z,84.10
2018-05-18T02:16:51.936Z,84.20
2018-05-18T02:19:19.374Z,84.20
2018-05-18T02:21:46.842Z,84.20
2018-05-18T02:24:14.308Z,84.30
2018-05-18T02:26:41.761Z,84.30
2018-05-18T02:29:09.215Z,84.30
2018-05-18T02:31:36.656Z,84.30
2018-05-18T02:34:04.130Z,84.30
2018-05-18T02:36:31.556Z,84.40
2018-05-18T02:38:59.819Z,84.40
2018-05-18T02:41:27.251Z,84.40
2018-05-18T02:43:54.752Z,84.50
2018-05-18T02:46:22.197Z,84.60
2018-05-18T02:48:50.411Z,84.60
2018-05-18T02:51:17.864Z,84.50
2018-05-18T02:53:45.318Z,84.60
2018-05-18T02:56:12.833Z,84.80
2018-05-18T02:58:40.288Z,84.90
2018-05-18T03:01:07.758Z,85.00
2018-05-18T03:03:35.186Z,85.00
2018-05-18T03:06:02.659Z,84.90
2018-05-18T03:08:30.114Z,85.00
2018-05-18T03:10:57.557Z,85.00
2018-05-18T03:13:25.034Z,84.90
2018-05-18T03:15:52.476Z,85.00
2018-05-18T03:18:19.948Z,85.00
2018-05-18T03:20:47.387Z,85.00
2018-05-18T03:23:14.863Z,85.10
2018-05-18T03:25:42.320Z,85.10
2018-05-18T03:28:10.578Z,85.10
2018-05-18T03:30:38.016Z,85.10
2018-05-18T03:33:05.458Z,85.10
2018-05-18T03:35:32.913Z,85.20
2018-05-18T03:38:00.369Z,85.30
2018-05-18T03:40:27.819Z,85.20
2018-05-18T03:42:55.268Z,85.20
2018-05-18T03:45:22.731Z,85.20
2018-05-18T03:47:50.200Z,85.30
2018-05-18T03:50:17.661Z,85.40
2018-05-18T03:52:45.117Z,85.50
2018-05-18T03:55:12.561Z,85.30
2018-05-18T03:57:40.032Z,85.30
2018-05-18T04:00:07.585Z,85.30
2018-05-18T04:02:46.853Z,85.30
2018-05-18T04:05:26.165Z,85.50
2018-05-18T04:08:05.482Z,85.40
2018-05-18T04:10:32.942Z,85.50
2018-05-18T04:13:00.412Z,85.40
2018-05-18T04:15:27.890Z,85.30
2018-05-18T04:17:55.359Z,85.40
2018-05-18T04:20:22.788Z,85.40
2018-05-18T04:22:51.029Z,85.40
2018-05-18T04:25:18.491Z,85.30
2018-05-18T04:27:45.949Z,85.30
2018-05-18T04:30:13.471Z,85.30
2018-05-18T04:32:40.872Z,85.20
2018-05-18T04:35:08.536Z,85.30
2018-05-18T04:37:35.972Z,85.30
2018-05-18T04:40:03.439Z,85.30
2018-05-18T04:42:30.896Z,85.20
2018-05-18T04:44:58.340Z,85.20
2018-05-18T04:47:26.570Z,85.30
2018-05-18T04:49:54.023Z,85.20
2018-05-18T04:52:21.497Z,85.10
2018-05-18T04:54:48.940Z,85.10
2018-05-18T04:57:16.421Z,85.00
2018-05-18T04:59:44.646Z,85.00
2018-05-18T05:02:12.117Z,85.00
2018-05-18T05:04:40.328Z,84.90
2018-05-18T05:07:07.784Z,84.90
2018-05-18T05:09:36.044Z,84.80
2018-05-18T05:12:03.488Z,84.80
2018-05-18T05:14:30.995Z,84.80
2018-05-18T05:16:58.445Z,84.90
2018-05-18T05:19:26.678Z,84.80
2018-05-18T05:21:54.142Z,84.80
2018-05-18T05:24:21.607Z,84.70
2018-05-18T05:26:49.049Z,84.70
2018-05-18T05:29:16.528Z,84.60
2018-05-18T05:31:44.533Z,84.50
2018-05-18T05:34:12.011Z,84.30
2018-05-18T05:36:39.468Z,84.20
2018-05-18T05:39:06.921Z,84.20
2018-05-18T05:41:34.380Z,84.10
2018-05-18T05:44:01.838Z,84.00
2018-05-18T05:46:29.317Z,84.10
2018-05-18T05:48:56.809Z,84.00
2018-05-18T05:51:25.078Z,83.90
2018-05-18T05:53:52.569Z,83.90
2018-05-18T05:56:20.066Z,84.00
2018-05-18T05:58:47.529Z,83.90
2018-05-18T06:01:14.967Z,83.90
2018-05-18T06:03:42.413Z,83.70
2018-05-18T06:06:09.877Z,83.60
2018-05-18T06:08:37.317Z,83.80
2018-05-18T06:11:04.786Z,83.70
2018-05-18T06:13:32.240Z,83.50
2018-05-18T06:15:59.710Z,83.40
2018-05-18T06:18:27.173Z,83.30
2018-05-18T06:20:54.625Z,83.10
2018-05-18T06:23:22.085Z,83.00
2018-05-18T06:25:49.528Z,82.90
2018-05-18T06:28:17.002Z,82.70
2018-05-18T06:30:44.780Z,82.60
2018-05-18T06:33:12.320Z,82.60
2018-05-18T06:35:39.796Z,82.50
2018-05-18T06:38:07.237Z,82.30
2018-05-18T06:40:34.836Z,82.20
2018-05-18T06:43:03.089Z,81.90
2018-05-18T06:45:30.625Z,81.90
2018-05-18T06:47:58.078Z,81.80
2018-05-18T06:50:25.569Z,81.50
2018-05-18T06:52:53.024Z,81.60
2018-05-18T06:55:20.477Z,81.50
2018-05-18T06:57:47.915Z,81.50
2018-05-18T07:00:15.385Z,81.50
2018-05-18T07:02:42.841Z,81.30
2018-05-18T07:05:10.297Z,81.30
2018-05-18T07:07:37.753Z,81.30
2018-05-18T07:10:05.188Z,81.20
2018-05-18T07:12:32.680Z,81.30
2018-05-18T07:15:00.141Z,81.10
2018-05-18T07:17:27.588Z,81.10
2018-05-18T07:19:55.049Z,81.20
2018-05-18T07:22:22.496Z,81.10
2018-05-18T07:24:49.958Z,81.20
2018-05-18T07:27:17.418Z,81.10
2018-05-18T07:29:44.864Z,81.10
2018-05-18T07:32:12.361Z,81.00
2018-05-18T07:34:40.493Z,81.10
2018-05-18T07:37:07.958Z,81.10
2018-05-18T07:39:36.176Z,81.10
2018-05-18T07:42:04.403Z,80.80
2018-05-18T07:44:31.889Z,80.70
2018-05-18T07:46:59.389Z,80.70
2018-05-18T07:49:26.833Z,80.60
2018-05-18T07:51:54.297Z,80.60
2018-05-18T07:54:21.761Z,80.40
2018-05-18T07:56:49.229Z,80.50
2018-05-18T07:59:16.677Z,80.60
2018-05-18T08:01:44.148Z,80.50
2018-05-18T08:04:11.729Z,80.70
2018-05-18T08:06:39.185Z,80.80
2018-05-18T08:09:06.660Z,80.40
2018-05-18T08:11:34.127Z,80.20
2018-05-18T08:14:01.589Z,79.90
2018-05-18T08:16:29.044Z,80.20
2018-05-18T08:18:56.502Z,80.20
2018-05-18T08:21:23.945Z,80.20
2018-05-18T08:23:51.401Z,79.90
2018-05-18T08:26:19.538Z,79.70
2018-05-18T08:28:58.285Z,79.80
2018-05-18T08:31:26.520Z,79.60
2018-05-18T08:33:54.798Z,79.50
2018-05-18T08:36:22.253Z,79.40
2018-05-18T08:38:49.692Z,79.30
2018-05-18T08:41:17.167Z,79.20
2018-05-18T08:43:44.597Z,79.10
2018-05-18T08:46:12.322Z,79.00
2018-05-18T08:48:39.760Z,78.90
2018-05-18T08:51:07.221Z,79.00
2018-05-18T08:53:34.667Z,79.20
2018-05-18T08:56:02.129Z,79.40
2018-05-18T08:58:30.336Z,79.10
2018-05-18T09:00:58.330Z,79.10
2018-05-18T09:03:25.788Z,78.20
2018-05-18T09:05:54.029Z,78.20
2018-05-18T09:08:21.496Z,78.20
2018-05-18T09:10:48.944Z,78.00
2018-05-18T09:13:16.404Z,78.00
2018-05-18T09:15:43.863Z,77.70
2018-05-18T09:18:11.418Z,77.60
2018-05-18T09:20:38.874Z,77.10
2018-05-18T09:23:06.313Z,77.00
2018-05-18T09:25:33.789Z,76.90
2018-05-18T09:28:01.250Z,76.80
2018-05-18T09:30:30.017Z,76.80
2018-05-18T09:32:57.462Z,76.70
2018-05-18T09:35:24.925Z,76.30
2018-05-18T09:37:52.377Z,75.90
2018-05-18T09:40:19.864Z,75.60
2018-05-18T09:42:48.097Z,74.90
2018-05-18T09:45:15.578Z,74.90
2018-05-18T09:47:42.995Z,74.90
2018-05-18T09:50:10.483Z,75.10
2018-05-18T09:52:37.949Z,74.70
2018-05-18T09:55:05.565Z,74.40
2018-05-18T09:57:32.881Z,74.20
2018-05-18T10:00:01.182Z,73.80
2018-05-18T10:02:29.396Z,73.80
2018-05-18T10:04:56.829Z,73.80
2018-05-18T10:07:24.284Z,73.60
2018-05-18T10:09:51.729Z,73.40
2018-05-18T10:12:19.200Z,73.40
2018-05-18T10:14:47.413Z,73.50
2018-05-18T10:17:28.184Z,73.40
2018-05-18T10:19:55.744Z,73.10
2018-05-18T10:22:23.209Z,72.60
2018-05-18T10:24:50.666Z,72.90
2018-05-18T10:27:18.155Z,73.10
2018-05-18T10:29:45.640Z,73.00
2018-05-18T10:32:13.953Z,72.90
2018-05-18T10:34:41.417Z,72.90
2018-05-18T10:37:08.886Z,73.40
2018-05-18T10:39:36.385Z,72.40
2018-05-18T10:42:03.793Z,72.10
2018-05-18T10:44:31.264Z,71.90
2018-05-18T10:46:58.705Z,72.30
2018-05-18T10:49:26.196Z,71.90
2018-05-18T10:51:53.630Z,71.40
2018-05-18T10:54:21.089Z,71.70
2018-05-18T10:56:48.557Z,72.10
2018-05-18T10:59:16.002Z,72.00
2018-05-18T11:01:43.456Z,72.10
2018-05-18T11:04:10.908Z,72.10
2018-05-18T11:06:38.390Z,71.80
2018-05-18T11:09:05.861Z,71.50
2018-05-18T11:11:33.288Z,71.50
2018-05-18T11:14:00.799Z,71.20
2018-05-18T11:16:28.206Z,71.10
2018-05-18T11:18:55.683Z,70.30
2018-05-18T11:21:23.148Z,70.80
2018-05-18T11:23:51.380Z,70.90
2018-05-18T11:26:18.836Z,70.90
2018-05-18T11:28:46.316Z,71.00
2018-05-18T11:31:13.981Z,71.00
2018-05-18T11:33:49.317Z,70.80
2018-05-18T11:36:18.177Z,70.40
2018-05-18T11:38:45.644Z,70.30
2018-05-18T11:41:13.105Z,70.50
2018-05-18T11:43:40.557Z,70.40
2018-05-18T11:46:08.949Z,70.10
2018-05-18T11:48:36.408Z,69.70
2018-05-18T11:51:03.848Z,69.80
2018-05-18T11:53:31.321Z,70.00
2018-05-18T11:55:58.800Z,70.50
2018-05-18T11:58:26.257Z,69.50
2018-05-18T12:00:53.716Z,69.40
2018-05-18T12:03:21.171Z,69.10
2018-05-18T12:05:48.616Z,69.20
2018-05-18T12:08:16.240Z,69.20
2018-05-18T12:10:43.708Z,69.40
2018-05-18T12:13:11.185Z,69.70
2018-05-18T12:15:38.642Z,69.70
2018-05-18T12:18:06.132Z,69.70
2018-05-18T12:20:33.698Z,69.70
2018-05-18T12:23:01.196Z,69.60
2018-05-18T12:25:28.629Z,69.60
2018-05-18T12:27:56.104Z,69.60
2018-05-18T12:30:23.596Z,69.40
2018-05-18T12:32:51.058Z,69.30
2018-05-18T12:35:18.520Z,69.20
2018-05-18T12:37:46.869Z,69.60
2018-05-18T12:40:15.434Z,69.60
2018-05-18T12:42:42.953Z,69.60
2018-05-18T12:45:10.418Z,70.60
2018-05-18T12:47:37.895Z,69.80
2018-05-18T12:50:05.331Z,69.80
2018-05-18T12:52:32.780Z,69.70
2018-05-18T12:55:00.254Z,69.40
2018-05-18T12:57:27.729Z,69.10
2018-05-18T12:59:55.168Z,69.40
2018-05-18T13:02:22.605Z,69.40
2018-05-18T13:04:50.084Z,69.10
2018-05-18T13:07:17.505Z,69.30
2018-05-18T13:09:44.977Z,69.00
2018-05-18T13:12:12.439Z,68.90
2018-05-18T13:14:40.085Z,68.90
2018-05-18T13:17:07.543Z,69.10
2018-05-18T13:19:35.012Z,69.20
2018-05-18T13:22:02.505Z,69.20
2018-05-18T13:24:30.141Z,68.80
2018-05-18T13:26:57.604Z,69.20
2018-05-18T13:29:25.092Z,69.20
2018-05-18T13:31:52.533Z,69.30
2018-05-18T13:34:19.999Z,69.40
2018-05-18T13:36:47.465Z,69.40
2018-05-18T13:39:14.975Z,69.40
2018-05-18T13:41:42.409Z,69.60
2018-05-18T13:44:10.633Z,69.50
2018-05-18T13:46:38.848Z,69.30
2018-05-18T13:49:06.415Z,69.30
2018-05-18T13:51:34.636Z,70.10
2018-05-18T13:54:02.072Z,70.00
2018-05-18T13:56:30.373Z,69.70
2018-05-18T13:58:57.832Z,69.30
2018-05-18T14:01:26.003Z,68.90
2018-05-18T14:03:54.229Z,69.40
2018-05-18T14:06:21.857Z,69.50
2018-05-18T14:08:49.300Z,69.50
2018-05-18T14:11:17.668Z,69.20
2018-05-18T14:13:45.104Z,69.10
2018-05-18T14:16:14.157Z,69.10
2018-05-18T14:18:41.589Z,69.10
2018-05-18T14:21:09.053Z,69.00
2018-05-18T14:23:36.514Z,69.30
2018-05-18T14:26:03.952Z,69.10
2018-05-18T14:28:31.866Z,68.80
2018-05-18T14:31:00.065Z,68.80
2018-05-18T14:33:27.578Z,68.80
2018-05-18T14:35:55.010Z,68.50
2018-05-18T14:38:22.448Z,68.50
2018-05-18T14:40:50.693Z,68.60
2018-05-18T14:43:18.132Z,68.40
2018-05-18T14:45:45.564Z,68.30
2018-05-18T14:48:13.076Z,68.40
2018-05-18T14:50:40.529Z,67.90
2018-05-18T14:53:08.005Z,68.80
2018-05-18T14:55:35.451Z,68.20
2018-05-18T14:58:02.904Z,67.70
2018-05-18T15:00:30.384Z,68.10
2018-05-18T15:02:58.628Z,68.20
2018-05-18T15:05:26.099Z,68.10
2018-05-18T15:07:53.567Z,68.10
2018-05-18T15:10:21.025Z,67.90
2018-05-18T15:12:48.493Z,67.80
2018-05-18T15:15:16.745Z,67.40
2018-05-18T15:17:44.224Z,67.40
2018-05-18T15:20:11.668Z,67.60
2018-05-18T15:22:39.160Z,67.70
2018-05-18T15:25:06.615Z,67.90
2018-05-18T15:27:34.192Z,68.10
2018-05-18T15:30:01.668Z,68.00
2018-05-18T15:32:29.109Z,68.10
2018-05-18T15:34:56.716Z,68.10
2018-05-18T15:37:24.246Z,68.10
2018-05-18T15:39:51.629Z,67.80
2018-05-18T15:42:19.072Z,67.90
2018-05-18T15:44:46.549Z,67.90
2018-05-18T15:47:13.997Z,67.70
2018-05-18T15:49:41.800Z,67.70
2018-05-18T15:52:09.265Z,67.70
2018-05-18T15:54:36.684Z,67.60
2018-05-18T15:57:04.145Z,67.60
2018-05-18T15:59:32.401Z,67.80
2018-05-18T16:01:59.868Z,67.70
2018-05-18T16:04:27.427Z,68.00
2018-05-18T16:06:55.565Z,67.80
2018-05-18T16:09:23.006Z,67.70
2018-05-18T16:11:50.463Z,68.00
2018-05-18T16:14:17.941Z,68.00
2018-05-18T16:16:46.244Z,68.20
2018-05-18T16:19:13.685Z,68.20
2018-05-18T16:21:41.155Z,67.80
2018-05-18T16:24:08.624Z,67.80
2018-05-18T16:26:36.082Z,67.90
2018-05-18T16:29:06.815Z,68.20
2018-05-18T16:31:34.753Z,68.30
2018-05-18T16:34:02.192Z,68.90
2018-05-18T16:36:29.653Z,68.20
2018-05-18T16:38:57.194Z,68.10
2018-05-18T16:41:24.637Z,68.40
2018-05-18T16:43:52.098Z,68.70
2018-05-18T16:46:19.568Z,69.00
2018-05-18T16:48:47.009Z,68.70
2018-05-18T16:51:14.491Z,68.70
2018-05-18T16:53:42.250Z,69.00
2018-05-18T16:56:09.861Z,69.00
2018-05-18T16:58:39.896Z,69.30
2018-05-18T17:01:07.439Z,69.50
2018-05-18T17:03:34.916Z,69.50
2018-05-18T17:06:02.369Z,69.60
2018-05-18T17:08:29.828Z,69.60
2018-05-18T17:10:57.276Z,69.80
2018-05-18T17:13:28.363Z,69.70
2018-05-18T17:15:55.921Z,70.40
2018-05-18T17:18:23.431Z,69.70
2018-05-18T17:20:53.126Z,70.00
2018-05-18T17:23:21.902Z,70.10
2018-05-18T17:25:49.419Z,70.00
2018-05-18T17:28:16.806Z,70.00
2018-05-18T17:30:44.252Z,70.00
2018-05-18T17:33:12.452Z,70.40
2018-05-18T17:35:39.912Z,70.40
2018-05-18T17:38:07.349Z,70.60
2018-05-18T17:40:36.399Z,70.60
2018-05-18T17:43:03.856Z,70.60
2018-05-18T17:45:31.650Z,70.70
2018-05-18T17:47:59.097Z,70.70
2018-05-18T17:50:26.545Z,70.80
2018-05-18T17:52:54.011Z,70.90
2018-05-18T17:55:21.489Z,70.90
2018-05-18T17:57:50.437Z,70.90
2018-05-18T18:00:18.052Z,70.90
2018-05-18T18:02:45.512Z,71.00
2018-05-18T18:05:12.960Z,71.10
2018-05-18T18:07:40.424Z,71.20
2018-05-18T18:10:07.885Z,71.10
2018-05-18T18:12:36.179Z,71.00
2018-05-18T18:15:04.109Z,71.20
2018-05-18T18:17:33.782Z,71.40
2018-05-18T18:20:01.243Z,71.30
2018-05-18T18:22:28.715Z,71.70
2018-05-18T18:24:56.164Z,71.70
2018-05-18T18:27:23.626Z,71.70
2018-05-18T18:29:51.120Z,71.80
2018-05-18T18:32:18.578Z,71.90
2018-05-18T18:34:46.806Z,71.90
2018-05-18T18:37:14.252Z,71.80
2018-05-18T18:39:41.708Z,71.90
2018-05-18T18:42:09.181Z,72.10
2018-05-18T18:44:36.630Z,72.00
2018-05-18T18:47:04.850Z,72.10
2018-05-18T18:49:33.071Z,72.20
2018-05-18T18:52:00.642Z,72.20
2018-05-18T18:54:28.009Z,72.30
2018-05-18T18:56:55.476Z,72.20
2018-05-18T18:59:22.916Z,72.20
2018-05-18T19:01:50.376Z,72.30
2018-05-18T19:04:17.832Z,72.30
2018-05-18T19:06:46.792Z,72.90
2018-05-18T19:09:14.269Z,72.40
2018-05-18T19:11:41.745Z,72.60
2018-05-18T19:14:09.214Z,72.60
2018-05-18T19:16:36.886Z,72.50
2018-05-18T19:19:04.344Z,72.40
2018-05-18T19:21:32.542Z,72.50
2018-05-18T19:23:59.991Z,72.50
2018-05-18T19:26:28.212Z,72.40
2018-05-18T19:28:55.705Z,72.40
2018-05-18T19:31:23.905Z,72.40
2018-05-18T19:33:51.381Z,72.40
2018-05-18T19:36:18.855Z,72.30
2018-05-18T19:38:46.369Z,72.50
2018-05-18T19:41:13.848Z,72.60
2018-05-18T19:43:41.298Z,72.70
2018-05-18T19:46:08.721Z,72.90
2018-05-18T19:48:36.973Z,73.10
2018-05-18T19:51:04.432Z,73.10
2018-05-18T19:53:31.875Z,73.10
2018-05-18T19:55:59.341Z,73.10
2018-05-18T19:58:26.790Z,73.30
2018-05-18T20:00:54.229Z,73.50
2018-05-18T20:03:21.706Z,73.60
2018-05-18T20:05:49.172Z,73.60
2018-05-18T20:08:16.619Z,73.80
2018-05-18T20:10:44.078Z,73.90
2018-05-18T20:13:11.534Z,73.90
2018-05-18T20:15:39.625Z,74.10
2018-05-18T20:18:07.118Z,74.00
2018-05-18T20:20:34.576Z,74.00
2018-05-18T20:23:02.805Z,74.00
2018-05-18T20:25:30.242Z,74.00
2018-05-18T20:27:57.696Z,74.10
2018-05-18T20:30:25.152Z,74.10
2018-05-18T20:32:52.628Z,74.20
2018-05-18T20:35:20.078Z,74.20
2018-05-18T20:37:47.577Z,74.10
2018-05-18T20:40:15.056Z,74.20
2018-05-18T20:42:42.489Z,74.40
2018-05-18T20:45:10.051Z,74.70
2018-05-18T20:47:37.437Z,74.90
2018-05-18T20:50:04.900Z,74.90
2018-05-18T20:52:32.462Z,74.70
2018-05-18T20:54:59.928Z,74.90
2018-05-18T20:57:27.425Z,74.90
2018-05-18T20:59:54.963Z,74.90
2018-05-18T21:02:23.205Z,75.10
2018-05-18T21:04:50.642Z,75.10
2018-05-18T21:07:18.115Z,75.20
2018-05-18T21:09:46.366Z,75.10
2018-05-18T21:12:13.799Z,75.10
2018-05-18T21:14:41.248Z,75.20
2018-05-18T21:17:08.704Z,75.20
2018-05-18T21:19:36.193Z,75.20
2018-05-18T21:22:03.648Z,75.10
2018-05-18T21:24:31.109Z,75.30
2018-05-18T21:26:58.548Z,75.40
2018-05-18T21:29:26.067Z,75.40
2018-05-18T21:31:53.535Z,75.50
2018-05-18T21:34:20.982Z,75.40
2018-05-18T21:36:48.467Z,75.50
2018-05-18T21:39:16.749Z,75.60
2018-05-18T21:41:44.210Z,75.80
2018-05-18T21:44:11.677Z,75.90
2018-05-18T21:46:39.167Z,76.60
2018-05-18T21:49:06.601Z,76.00
2018-05-18T21:51:34.845Z,75.90
2018-05-18T21:54:02.302Z,75.90
2018-05-18T21:56:29.761Z,76.00
2018-05-18T21:58:57.236Z,76.00
2018-05-18T22:01:24.691Z,76.10
2018-05-18T22:03:52.174Z,76.10
2018-05-18T22:06:19.626Z,76.10
2018-05-18T22:08:47.080Z,76.10
2018-05-18T22:11:15.322Z,76.30
2018-05-18T22:13:42.780Z,76.20
2018-05-18T22:16:10.248Z,76.40
2018-05-18T22:18:37.694Z,76.40
2018-05-18T22:21:05.174Z,76.40
2018-05-18T22:23:32.627Z,76.50
2018-05-18T22:26:00.089Z,76.40
2018-05-18T22:28:28.308Z,76.60
2018-05-18T22:30:55.801Z,76.60
2018-05-18T22:33:23.257Z,76.70
2018-05-18T22:35:50.732Z,76.80
2018-05-18T22:38:18.184Z,77.00
2018-05-18T22:40:45.655Z,77.20
2018-05-18T22:43:13.120Z,77.00
2018-05-18T22:45:41.325Z,77.20
2018-05-18T22:48:09.604Z,77.20
2018-05-18T22:50:37.048Z,77.30
2018-05-18T22:53:04.509Z,77.20
2018-05-18T22:55:31.946Z,77.20
2018-05-18T22:57:59.407Z,78.00
2018-05-18T23:00:26.856Z,77.40
2018-05-18T23:02:54.327Z,77.20
2018-05-18T23:05:21.768Z,77.30
2018-05-18T23:07:49.217Z,77.30
2018-05-18T23:10:17.469Z,77.40
2018-05-18T23:12:44.903Z,77.20
2018-05-18T23:15:12.369Z,77.30
2018-05-18T23:17:39.864Z,77.30
2018-05-18T23:20:08.177Z,77.40
2018-05-18T23:22:35.650Z,77.30
2018-05-18T23:25:03.864Z,77.00
2018-05-18T23:27:31.369Z,77.40
2018-05-18T23:29:58.829Z,77.40
2018-05-18T23:32:26.298Z,77.40
2018-05-18T23:34:53.743Z,77.40
2018-05-18T23:37:21.201Z,77.40
2018-05-18T23:39:48.683Z,77.50
2018-05-18T23:42:16.137Z,77.60
2018-05-18T23:44:43.611Z,77.40
2018-05-18T23:47:11.046Z,77.50
2018-05-18T23:49:38.541Z,77.40
2018-05-18T23:52:06.013Z,77.70
2018-05-18T23:54:34.233Z,77.90
2018-05-18T23:57:01.677Z,77.90
2018-05-18T23:59:29.144Z,77.90
